Time;durP1;ratioP1;P1;durP2;ratioP2;P2;SDS_P1;SDS_P2;PMS_P1;PMS_P2;Temp;Humidity;BMP_temperature;BMP_pressure;BME280_temperature;BME280_humidity;BME280_pressure;Samples;Min_cycle;Max_cycle;Signal;HPM_P1;HPM_P2
2021/05/27 00:01:52;;;;;;;1.67;1.58;;;;;;;;;;4988971;28;20181;-47
2021/05/27 00:04:17;;;;;;;2.10;1.45;;;;;;;;;;4986924;28;20194;-47
2021/05/27 00:06:42;;;;;;;1.23;1.13;;;;;;;;;;4989139;28;20616;-47
2021/05/27 00:09:07;;;;;;;1.23;1.23;;;;;;;;;;4985902;28;20184;-48
2021/05/27 00:11:33;;;;;;;1.20;1.10;;;;;;;;;;4986865;28;20205;-47
2021/05/27 00:13:58;;;;;;;1.70;1.60;;;;;;;;;;4988642;28;20364;-47
2021/05/27 00:16:23;;;;;;;2.00;1.50;;;;;;;;;;4985064;28;20166;-48
2021/05/27 00:18:52;;;;;;;1.70;1.60;;;;;;;;;;4992359;28;20544;-48
2021/05/27 00:21:17;;;;;;;2.03;1.80;;;;;;;;;;4984881;28;20665;-48
2021/05/27 00:23:43;;;;;;;1.60;1.50;;;;;;;;;;4987824;28;20644;-47
2021/05/27 00:26:08;;;;;;;2.73;1.57;;;;;;;;;;4987692;28;20594;-47
2021/05/27 00:28:33;;;;;;;1.80;1.70;;;;;;;;;;4992516;28;20572;-47
2021/05/27 00:30:58;;;;;;;1.70;1.60;;;;;;;;;;4986232;28;20220;-47
2021/05/27 00:33:23;;;;;;;2.10;2.00;;;;;;;;;;4992952;28;20173;-47
2021/05/27 00:35:48;;;;;;;2.17;2.07;;;;;;;;;;4988335;28;20556;-47
2021/05/27 00:38:14;;;;;;;1.83;1.73;;;;;;;;;;4988219;28;20272;-47
2021/05/27 00:40:39;;;;;;;2.00;1.90;;;;;;;;;;4984813;28;20181;-47
2021/05/27 00:43:05;;;;;;;1.90;1.80;;;;;;;;;;4985837;28;20283;-47
2021/05/27 00:45:30;;;;;;;1.80;1.70;;;;;;;;;;4986254;28;20188;-48
2021/05/27 00:47:55;;;;;;;1.90;1.80;;;;;;;;;;4992181;28;20609;-47
2021/05/27 00:50:20;;;;;;;1.83;1.73;;;;;;;;;;4988188;28;20597;-47
2021/05/27 00:52:47;;;;;;;1.93;1.83;;;;;;;;;;4986042;28;20166;-47
2021/05/27 00:55:12;;;;;;;1.90;1.80;;;;;;;;;;4987686;28;20268;-47
2021/05/27 00:57:37;;;;;;;2.57;2.37;;;;;;;;;;4987244;28;20719;-47
2021/05/27 01:00:07;;;;;;;2.63;2.50;;;;;;;;;;4985491;28;20263;-47
2021/05/27 01:02:33;;;;;;;2.27;2.17;;;;;;;;;;4997993;28;20271;-47
2021/05/27 01:04:58;;;;;;;2.30;2.20;;;;;;;;;;4990463;28;20696;-47
2021/05/27 01:07:23;;;;;;;2.07;1.97;;;;;;;;;;4985899;28;20209;-48
2021/05/27 01:09:49;;;;;;;2.10;2.00;;;;;;;;;;4987271;28;20173;-47
2021/05/27 01:12:14;;;;;;;1.90;1.80;;;;;;;;;;4987395;28;20849;-48
2021/05/27 01:17:23;;;;;;;2.90;2.13;;;;;;;;;;4991332;28;20207;-47
2021/05/27 01:19:49;;;;;;;2.37;2.27;;;;;;;;;;4987912;28;20616;-48
2021/05/27 01:22:15;;;;;;;2.37;2.27;;;;;;;;;;4985206;28;20174;-46
2021/05/27 01:24:40;;;;;;;2.53;2.35;;;;;;;;;;4987798;28;21136;-47
2021/05/27 01:27:05;;;;;;;2.88;2.67;;;;;;;;;;4987527;28;20199;-47
2021/05/27 01:29:30;;;;;;;2.90;2.70;;;;;;;;;;4984651;28;20201;-48
2021/05/27 01:31:57;;;;;;;2.70;2.50;;;;;;;;;;4988341;28;20180;-47
2021/05/27 01:34:22;;;;;;;2.50;2.40;;;;;;;;;;4984818;28;20211;-47
2021/05/27 01:36:47;;;;;;;2.63;2.50;;;;;;;;;;4983868;28;20639;-47
2021/05/27 01:39:13;;;;;;;3.03;2.83;;;;;;;;;;4984637;28;20194;-47
2021/05/27 01:41:38;;;;;;;3.10;2.80;;;;;;;;;;4989589;28;20176;-47
2021/05/27 01:44:03;;;;;;;3.03;2.83;;;;;;;;;;4986824;28;20182;-47
2021/05/27 01:46:28;;;;;;;3.07;2.87;;;;;;;;;;4984599;28;20183;-48
2021/05/27 01:48:53;;;;;;;3.05;2.83;;;;;;;;;;4987651;28;20181;-47
2021/05/27 01:51:19;;;;;;;2.95;2.75;;;;;;;;;;4985601;28;20223;-48
2021/05/27 01:53:44;;;;;;;3.20;3.00;;;;;;;;;;4987687;28;20585;-47
2021/05/27 01:56:09;;;;;;;3.30;3.10;;;;;;;;;;4984828;28;20176;-46
2021/05/27 01:58:34;;;;;;;3.20;3.00;;;;;;;;;;4987209;28;20178;-48
2021/05/27 02:00:59;;;;;;;3.33;3.13;;;;;;;;;;4987376;28;20660;-48
2021/05/27 02:03:24;;;;;;;3.55;3.30;;;;;;;;;;4986487;28;20181;-48
2021/05/27 02:05:49;;;;;;;3.47;3.25;;;;;;;;;;4984665;28;20276;-47
2021/05/27 02:08:15;;;;;;;3.50;3.20;;;;;;;;;;4986811;28;20661;-48
2021/05/27 02:10:40;;;;;;;3.97;3.67;;;;;;;;;;4982300;28;20310;-47
2021/05/27 02:13:05;;;;;;;3.97;3.67;;;;;;;;;;4985032;28;20570;-47
2021/05/27 02:15:30;;;;;;;3.63;3.42;;;;;;;;;;4984033;28;20207;-48
2021/05/27 02:17:55;;;;;;;3.67;3.27;;;;;;;;;;4984780;28;20189;-47
2021/05/27 02:20:20;;;;;;;4.10;3.80;;;;;;;;;;4986602;28;20181;-47
2021/05/27 02:22:46;;;;;;;3.78;3.47;;;;;;;;;;4986608;28;20207;-48
2021/05/27 02:25:11;;;;;;;3.50;3.30;;;;;;;;;;4989335;28;20188;-47
2021/05/27 02:27:36;;;;;;;3.37;3.17;;;;;;;;;;4986055;28;20208;-48
2021/05/27 02:30:03;;;;;;;3.90;3.60;;;;;;;;;;4989878;28;20673;-47
2021/05/27 02:32:28;;;;;;;3.87;3.53;;;;;;;;;;4988647;28;20182;-47
2021/05/27 02:34:53;;;;;;;4.22;3.88;;;;;;;;;;4988864;28;20614;-51
2021/05/27 02:37:18;;;;;;;3.97;3.67;;;;;;;;;;4990051;28;20265;-46
2021/05/27 02:39:44;;;;;;;4.10;3.80;;;;;;;;;;4989254;28;20602;-47
2021/05/27 02:42:09;;;;;;;4.10;3.80;;;;;;;;;;4991178;28;20254;-46
2021/05/27 02:44:34;;;;;;;4.57;4.30;;;;;;;;;;4988501;28;20184;-46
2021/05/27 02:46:59;;;;;;;5.07;4.67;;;;;;;;;;4990635;28;20688;-47
2021/05/27 02:49:24;;;;;;;4.90;4.60;;;;;;;;;;4986594;28;20180;-48
2021/05/27 02:51:50;;;;;;;5.03;4.63;;;;;;;;;;4990206;28;20231;-46
2021/05/27 02:54:15;;;;;;;4.82;4.53;;;;;;;;;;4991415;28;20639;-47
2021/05/27 02:56:40;;;;;;;4.30;4.00;;;;;;;;;;4989874;28;20822;-48
2021/05/27 02:59:06;;;;;;;4.77;4.47;;;;;;;;;;4985640;28;20183;-47
2021/05/27 03:01:31;;;;;;;4.37;4.07;;;;;;;;;;4989445;28;20250;-49
2021/05/27 03:03:56;;;;;;;4.00;3.75;;;;;;;;;;4988237;28;20212;-47
2021/05/27 03:06:21;;;;;;;5.07;4.63;;;;;;;;;;4987238;28;21327;-47
2021/05/27 03:08:47;;;;;;;4.60;4.30;;;;;;;;;;4989342;28;20219;-48
2021/05/27 03:11:12;;;;;;;4.00;3.80;;;;;;;;;;4987679;28;20622;-47
2021/05/27 03:13:37;;;;;;;4.70;4.40;;;;;;;;;;4989119;28;20188;-48
2021/05/27 03:16:02;;;;;;;4.73;4.43;;;;;;;;;;4989676;28;20178;-47
2021/05/27 03:18:30;;;;;;;4.57;4.27;;;;;;;;;;4989365;28;20651;-48
2021/05/27 03:20:55;;;;;;;5.43;5.03;;;;;;;;;;4987725;28;20170;-45
2021/05/27 03:23:20;;;;;;;5.03;4.72;;;;;;;;;;4988921;28;20655;-46
2021/05/27 03:25:45;;;;;;;4.73;4.43;;;;;;;;;;4984982;28;20203;-47
2021/05/27 03:28:10;;;;;;;4.65;4.32;;;;;;;;;;4984054;28;20212;-47
2021/05/27 03:30:35;;;;;;;4.80;4.47;;;;;;;;;;4983940;28;20236;-48
2021/05/27 03:33:01;;;;;;;4.83;4.53;;;;;;;;;;4986494;28;20874;-47
2021/05/27 03:35:26;;;;;;;4.83;4.53;;;;;;;;;;4987138;28;20185;-47
2021/05/27 03:37:51;;;;;;;7.03;5.17;;;;;;;;;;4984033;28;20615;-47
2021/05/27 03:40:17;;;;;;;4.80;4.50;;;;;;;;;;4987393;28;20197;-47
2021/05/27 03:42:47;;;;;;;4.70;4.40;;;;;;;;;;4987316;28;20197;-47
2021/05/27 03:45:14;;;;;;;4.80;4.50;;;;;;;;;;4978949;28;20187;-48
2021/05/27 03:47:39;;;;;;;4.60;4.20;;;;;;;;;;4984050;28;20663;-48
2021/05/27 03:50:05;;;;;;;4.90;4.20;;;;;;;;;;4986812;28;20690;-46
2021/05/27 03:52:31;;;;;;;4.30;4.00;;;;;;;;;;4980334;28;20595;-47
2021/05/27 03:54:56;;;;;;;4.80;4.40;;;;;;;;;;4981951;28;21005;-46
2021/05/27 03:57:21;;;;;;;4.40;4.10;;;;;;;;;;4983512;28;20756;-46
2021/05/27 04:02:30;;;;;;;4.23;3.93;;;;;;;;;;4979125;28;20228;-46
2021/05/27 04:07:39;;;;;;;3.97;3.77;;;;;;;;;;4989534;28;20226;-47
2021/05/27 04:10:05;;;;;;;4.73;4.33;;;;;;;;;;4987016;28;20606;-47
2021/05/27 04:15:20;;;;;;;4.20;4.00;;;;;;;;;;4987141;28;20236;-46
2021/05/27 04:17:46;;;;;;;4.50;4.20;;;;;;;;;;4985696;28;21289;-46
2021/05/27 04:20:11;;;;;;;3.63;3.43;;;;;;;;;;4981579;28;20874;-47
2021/05/27 04:22:39;;;;;;;4.43;3.87;;;;;;;;;;4985512;28;20173;-48
2021/05/27 04:25:04;;;;;;;4.17;3.87;;;;;;;;;;4983498;28;20652;-49
2021/05/27 04:27:29;;;;;;;4.23;3.93;;;;;;;;;;4983026;28;20653;-47
2021/05/27 04:29:55;;;;;;;4.13;3.70;;;;;;;;;;4979129;28;20221;-47
2021/05/27 04:35:04;;;;;;;3.73;3.53;;;;;;;;;;4986926;28;20267;-47
2021/05/27 04:37:29;;;;;;;3.50;3.30;;;;;;;;;;4982302;28;20652;-48
2021/05/27 04:39:54;;;;;;;4.22;3.92;;;;;;;;;;4981468;28;20185;-47
2021/05/27 04:42:19;;;;;;;4.53;4.15;;;;;;;;;;4980941;28;20607;-48
2021/05/27 04:44:44;;;;;;;4.18;3.88;;;;;;;;;;4982221;28;20268;-48
2021/05/27 04:47:10;;;;;;;4.10;3.85;;;;;;;;;;4980435;28;20209;-48
2021/05/27 04:49:35;;;;;;;4.10;3.80;;;;;;;;;;4981959;28;20633;-48
2021/05/27 04:52:00;;;;;;;4.32;4.03;;;;;;;;;;4981391;28;20194;-48
2021/05/27 04:54:25;;;;;;;4.30;4.00;;;;;;;;;;4983564;28;20170;-48
2021/05/27 04:56:50;;;;;;;4.30;4.00;;;;;;;;;;4985594;28;20185;-48
2021/05/27 04:59:15;;;;;;;4.35;4.05;;;;;;;;;;4981259;28;21872;-47
2021/05/27 05:01:41;;;;;;;4.43;4.13;;;;;;;;;;4980587;28;20190;-48
2021/05/27 05:04:06;;;;;;;5.53;4.10;;;;;;;;;;4978204;28;20191;-47
2021/05/27 05:06:32;;;;;;;4.67;4.37;;;;;;;;;;4978677;28;20193;-47
2021/05/27 05:08:57;;;;;;;4.10;3.80;;;;;;;;;;4981718;28;20260;-47
2021/05/27 05:11:22;;;;;;;4.60;4.30;;;;;;;;;;4979570;28;20182;-46
2021/05/27 05:13:47;;;;;;;4.93;4.63;;;;;;;;;;4982715;28;20177;-48
2021/05/27 05:16:13;;;;;;;3.90;3.70;;;;;;;;;;4984564;28;20181;-47
2021/05/27 05:18:38;;;;;;;5.05;4.65;;;;;;;;;;4982118;28;20180;-46
2021/05/27 05:21:03;;;;;;;5.30;4.90;;;;;;;;;;4984824;28;20182;-47
2021/05/27 05:23:28;;;;;;;4.53;4.23;;;;;;;;;;4983572;28;20234;-52
2021/05/27 05:25:53;;;;;;;5.05;4.55;;;;;;;;;;4985255;28;20282;-46
2021/05/27 05:28:18;;;;;;;5.10;4.70;;;;;;;;;;4987511;28;20218;-46
2021/05/27 05:30:45;;;;;;;4.50;4.10;;;;;;;;;;4983001;28;20232;-47
2021/05/27 05:33:10;;;;;;;4.57;4.27;;;;;;;;;;4985376;28;20190;-48
2021/05/27 05:35:36;;;;;;;4.93;4.60;;;;;;;;;;4985652;28;20566;-47
2021/05/27 05:38:01;;;;;;;4.70;4.40;;;;;;;;;;4978643;28;20194;-46
2021/05/27 05:40:27;;;;;;;4.57;4.20;;;;;;;;;;4983129;28;20670;-47
2021/05/27 05:42:53;;;;;;;4.80;4.50;;;;;;;;;;4987248;28;20656;-48
2021/05/27 05:45:18;;;;;;;5.07;4.70;;;;;;;;;;4985480;28;20637;-47
2021/05/27 05:47:44;;;;;;;4.63;4.23;;;;;;;;;;4987080;28;20222;-47
2021/05/27 05:50:09;;;;;;;4.87;4.57;;;;;;;;;;4987879;28;20166;-47
2021/05/27 05:52:35;;;;;;;6.30;4.40;;;;;;;;;;4980814;28;20609;-47
2021/05/27 05:55:00;;;;;;;3.63;3.37;;;;;;;;;;4979445;28;20190;-47
2021/05/27 05:57:25;;;;;;;4.70;4.30;;;;;;;;;;4983046;28;20174;-47
2021/05/27 05:59:51;;;;;;;4.63;4.23;;;;;;;;;;4989461;28;20186;-47
2021/05/27 06:02:16;;;;;;;4.25;3.95;;;;;;;;;;4977224;28;20210;-47
2021/05/27 06:04:41;;;;;;;4.73;4.47;;;;;;;;;;4982022;28;20193;-47
2021/05/27 06:07:06;;;;;;;4.20;3.90;;;;;;;;;;4990907;28;20630;-46
2021/05/27 06:09:31;;;;;;;4.30;4.00;;;;;;;;;;4989000;28;20204;-51
2021/05/27 06:11:56;;;;;;;4.83;4.43;;;;;;;;;;4986592;28;20185;-47
2021/05/27 06:14:22;;;;;;;4.10;3.83;;;;;;;;;;4988078;28;20231;-48
2021/05/27 06:16:47;;;;;;;4.40;4.07;;;;;;;;;;4987580;28;20273;-48
2021/05/27 06:19:13;;;;;;;4.50;4.20;;;;;;;;;;4991300;28;20223;-47
2021/05/27 06:21:38;;;;;;;4.33;4.03;;;;;;;;;;4989022;28;20214;-46
2021/05/27 06:24:04;;;;;;;4.30;4.00;;;;;;;;;;4985203;28;21771;-48
2021/05/27 06:26:31;;;;;;;4.70;4.40;;;;;;;;;;4986871;28;20711;-48
2021/05/27 06:28:56;;;;;;;4.57;4.20;;;;;;;;;;4986492;28;20203;-47
2021/05/27 06:31:21;;;;;;;4.63;4.33;;;;;;;;;;4984192;28;20751;-47
2021/05/27 06:33:46;;;;;;;4.40;4.10;;;;;;;;;;4990580;28;20181;-47
2021/05/27 06:36:12;;;;;;;4.67;4.37;;;;;;;;;;4990257;28;20503;-47
2021/05/27 06:38:37;;;;;;;5.20;4.20;;;;;;;;;;4988692;28;20202;-46
2021/05/27 06:41:03;;;;;;;4.33;4.13;;;;;;;;;;4987030;28;20196;-47
2021/05/27 06:43:28;;;;;;;4.30;4.00;;;;;;;;;;4989577;28;20184;-47
2021/05/27 06:45:53;;;;;;;4.23;3.93;;;;;;;;;;4983675;28;20200;-48
2021/05/27 06:48:18;;;;;;;4.00;3.70;;;;;;;;;;4985966;28;20241;-47
2021/05/27 06:50:44;;;;;;;4.40;4.10;;;;;;;;;;4989575;28;20282;-47
2021/05/27 06:53:10;;;;;;;4.80;4.00;;;;;;;;;;4986845;28;20178;-48
2021/05/27 06:55:35;;;;;;;3.80;3.50;;;;;;;;;;4987175;28;20185;-47
2021/05/27 06:58:01;;;;;;;4.40;4.00;;;;;;;;;;4986058;28;20627;-47
2021/05/27 07:00:28;;;;;;;3.90;3.60;;;;;;;;;;4977615;28;20187;-46
2021/05/27 07:02:53;;;;;;;3.77;3.57;;;;;;;;;;4987533;28;20194;-47
2021/05/27 07:05:19;;;;;;;3.50;3.30;;;;;;;;;;4985011;28;20886;-50
2021/05/27 07:07:44;;;;;;;3.70;3.50;;;;;;;;;;4983076;28;20244;-46
2021/05/27 07:10:09;;;;;;;3.83;3.63;;;;;;;;;;4983464;28;20619;-47
2021/05/27 07:12:35;;;;;;;4.83;3.70;;;;;;;;;;4983761;28;20192;-46
2021/05/27 07:15:00;;;;;;;4.60;4.20;;;;;;;;;;4985744;28;20181;-50
2021/05/27 07:17:25;;;;;;;5.17;4.67;;;;;;;;;;4985904;28;20172;-47
2021/05/27 07:19:52;;;;;;;4.57;3.93;;;;;;;;;;4989211;28;20938;-47
2021/05/27 07:22:17;;;;;;;4.83;4.53;;;;;;;;;;4990004;28;20201;-47
2021/05/27 07:24:43;;;;;;;4.33;4.03;;;;;;;;;;4988596;28;21175;-46
2021/05/27 07:27:08;;;;;;;4.13;3.83;;;;;;;;;;4987711;28;20208;-46
2021/05/27 07:29:34;;;;;;;4.07;3.67;;;;;;;;;;4987725;28;20293;-47
2021/05/27 07:31:59;;;;;;;4.23;3.93;;;;;;;;;;4976145;28;20243;-47
2021/05/27 07:34:24;;;;;;;4.10;3.90;;;;;;;;;;4989718;28;20181;-46
2021/05/27 07:36:49;;;;;;;3.93;3.63;;;;;;;;;;4989253;28;20170;-48
2021/05/27 07:39:14;;;;;;;3.83;3.63;;;;;;;;;;4989635;28;20197;-47
2021/05/27 07:41:39;;;;;;;3.80;3.50;;;;;;;;;;4989152;28;20173;-46
2021/05/27 07:44:05;;;;;;;3.42;3.22;;;;;;;;;;4985278;28;20180;-50
2021/05/27 07:46:30;;;;;;;3.13;2.97;;;;;;;;;;4973190;28;20273;-48
2021/05/27 07:48:55;;;;;;;3.20;3.00;;;;;;;;;;4986579;28;20261;-51
2021/05/27 07:51:21;;;;;;;3.30;3.10;;;;;;;;;;4989091;28;20636;-47
2021/05/27 07:53:46;;;;;;;2.97;2.77;;;;;;;;;;4988845;28;20530;-47
2021/05/27 07:56:11;;;;;;;2.73;2.63;;;;;;;;;;4984629;28;20180;-46
2021/05/27 07:58:36;;;;;;;3.50;3.20;;;;;;;;;;4986606;28;20724;-47
2021/05/27 08:01:03;;;;;;;3.20;3.00;;;;;;;;;;4980631;28;20189;-47
2021/05/27 08:03:29;;;;;;;3.77;3.47;;;;;;;;;;4988542;28;20865;-47
2021/05/27 08:05:54;;;;;;;2.90;2.70;;;;;;;;;;4988904;28;20574;-47
2021/05/27 08:08:19;;;;;;;2.58;2.47;;;;;;;;;;4988356;28;20198;-48
2021/05/27 08:10:46;;;;;;;3.20;3.00;;;;;;;;;;4989103;28;20532;-48
2021/05/27 08:13:12;;;;;;;3.43;3.23;;;;;;;;;;4986784;28;20186;-48
2021/05/27 08:15:37;;;;;;;3.53;3.33;;;;;;;;;;4980800;28;20614;-48
2021/05/27 08:18:02;;;;;;;3.20;3.00;;;;;;;;;;4988577;28;20961;-47
2021/05/27 08:20:27;;;;;;;3.17;2.95;;;;;;;;;;4988081;28;20245;-47
2021/05/27 08:22:52;;;;;;;3.20;3.00;;;;;;;;;;4988732;28;20188;-47
2021/05/27 08:25:17;;;;;;;3.10;2.90;;;;;;;;;;4984734;28;20169;-47
2021/05/27 08:27:43;;;;;;;3.60;2.97;;;;;;;;;;4986597;28;20269;-48
2021/05/27 08:30:08;;;;;;;2.80;2.60;;;;;;;;;;4984775;28;20228;-47
2021/05/27 08:32:33;;;;;;;3.10;2.90;;;;;;;;;;4986101;28;20183;-47
2021/05/27 08:34:59;;;;;;;2.77;2.57;;;;;;;;;;4988086;28;20179;-48
2021/05/27 08:37:24;;;;;;;2.60;2.40;;;;;;;;;;4988510;28;20196;-48
2021/05/27 08:39:49;;;;;;;2.40;2.20;;;;;;;;;;4987583;28;20544;-49
2021/05/27 08:42:15;;;;;;;2.47;2.27;;;;;;;;;;4986407;28;20212;-48
2021/05/27 08:44:41;;;;;;;2.77;2.67;;;;;;;;;;4986826;28;20183;-48
2021/05/27 08:47:06;;;;;;;2.40;2.20;;;;;;;;;;4973876;28;20233;-48
2021/05/27 08:49:32;;;;;;;2.50;2.30;;;;;;;;;;4988583;28;20223;-47
2021/05/27 08:51:57;;;;;;;2.50;2.40;;;;;;;;;;4987727;28;20542;-46
2021/05/27 08:54:22;;;;;;;3.22;2.40;;;;;;;;;;4985904;28;20253;-46
2021/05/27 08:56:47;;;;;;;2.80;2.20;;;;;;;;;;4984174;28;20556;-46
2021/05/27 08:59:12;;;;;;;2.40;2.30;;;;;;;;;;4984799;28;20195;-47
2021/05/27 09:01:56;;;;;;;2.10;2.00;;;;;;;;;;4982487;28;20632;-46
2021/05/27 09:04:24;;;;;;;2.13;1.97;;;;;;;;;;4968516;28;20178;-47
2021/05/27 09:06:50;;;;;;;2.00;1.90;;;;;;;;;;4975981;28;20674;-47
2021/05/27 09:09:15;;;;;;;2.30;2.10;;;;;;;;;;4987553;28;21130;-48
2021/05/27 09:11:42;;;;;;;2.00;1.90;;;;;;;;;;4985871;28;20611;-47
2021/05/27 09:14:07;;;;;;;1.80;1.70;;;;;;;;;;4986728;28;20182;-47
2021/05/27 09:16:32;;;;;;;2.00;1.90;;;;;;;;;;4975646;28;20621;-47
2021/05/27 09:19:14;;;;;;;2.00;1.90;;;;;;;;;;4985714;28;20173;-46
2021/05/27 09:21:41;;;;;;;2.47;2.27;;;;;;;;;;4987625;28;20281;-47
2021/05/27 09:24:07;;;;;;;5.53;2.10;;;;;;;;;;4987530;28;20589;-47
2021/05/27 09:26:33;;;;;;;2.13;1.90;;;;;;;;;;4985294;28;20592;-46
2021/05/27 09:29:09;;;;;;;1.90;1.80;;;;;;;;;;4982989;28;20640;-46
2021/05/27 09:31:34;;;;;;;2.10;2.00;;;;;;;;;;4974984;28;20229;-47
2021/05/27 09:34:01;;;;;;;1.83;1.73;;;;;;;;;;4990311;28;20601;-47
2021/05/27 09:36:26;;;;;;;2.27;2.17;;;;;;;;;;4993671;28;20177;-46
2021/05/27 09:38:55;;;;;;;2.03;1.90;;;;;;;;;;4992321;28;20568;-46
2021/05/27 09:41:24;;;;;;;2.13;1.90;;;;;;;;;;4991086;28;20193;-47
2021/05/27 09:44:02;;;;;;;1.77;1.67;;;;;;;;;;4993611;28;20663;-48
2021/05/27 09:46:27;;;;;;;1.60;1.50;;;;;;;;;;4980941;28;20954;-48
2021/05/27 09:49:02;;;;;;;2.27;2.10;;;;;;;;;;4990556;28;20652;-48
2021/05/27 09:51:28;;;;;;;2.23;2.10;;;;;;;;;;4993092;28;20259;-47
2021/05/27 09:53:54;;;;;;;3.93;2.50;;;;;;;;;;4993925;28;21020;-48
2021/05/27 09:56:31;;;;;;;3.60;2.50;;;;;;;;;;4992132;28;20737;-47
2021/05/27 09:58:56;;;;;;;2.33;2.13;;;;;;;;;;4978571;28;20623;-48
2021/05/27 10:01:21;;;;;;;2.78;2.55;;;;;;;;;;4986727;28;20714;-48
2021/05/27 10:03:46;;;;;;;2.00;1.90;;;;;;;;;;4993547;28;20674;-48
2021/05/27 10:06:12;;;;;;;2.03;1.90;;;;;;;;;;4993430;28;20181;-47
2021/05/27 10:08:54;;;;;;;4.17;2.00;;;;;;;;;;4994148;28;20209;-48
2021/05/27 10:11:19;;;;;;;1.80;1.70;;;;;;;;;;4988695;28;20226;-47
2021/05/27 10:13:45;;;;;;;2.20;2.10;;;;;;;;;;4993630;28;20591;-48
2021/05/27 10:16:14;;;;;;;2.27;2.07;;;;;;;;;;4986284;28;20173;-47
2021/05/27 10:18:39;;;;;;;2.40;2.10;;;;;;;;;;4993284;28;20176;-48
2021/05/27 10:21:05;;;;;;;2.40;2.20;;;;;;;;;;4993382;28;20588;-49
2021/05/27 10:23:30;;;;;;;2.10;1.90;;;;;;;;;;4993562;28;20224;-48
2021/05/27 10:25:56;;;;;;;2.00;1.90;;;;;;;;;;4991673;28;20185;-47
2021/05/27 10:28:24;;;;;;;3.60;2.10;;;;;;;;;;4990792;28;20246;-48
2021/05/27 10:30:49;;;;;;;2.00;1.80;;;;;;;;;;4987930;28;20659;-47
2021/05/27 10:33:20;;;;;;;2.20;2.10;;;;;;;;;;4983778;28;20672;-48
2021/05/27 10:35:52;;;;;;;2.33;1.83;;;;;;;;;;4993694;28;20180;-48
2021/05/27 10:38:39;;;;;;;1.97;1.80;;;;;;;;;;4993599;28;20610;-47
2021/05/27 10:41:06;;;;;;;2.00;1.90;;;;;;;;;;4990829;28;20962;-47
2021/05/27 10:43:32;;;;;;;1.83;1.73;;;;;;;;;;4988256;28;20600;-47
2021/05/27 10:45:58;;;;;;;2.07;1.97;;;;;;;;;;4984076;28;21036;-47
2021/05/27 10:48:24;;;;;;;1.80;1.70;;;;;;;;;;4990488;28;20660;-47
2021/05/27 10:50:55;;;;;;;2.00;1.90;;;;;;;;;;4990210;28;20637;-47
2021/05/27 10:53:33;;;;;;;2.23;2.03;;;;;;;;;;4983243;28;21134;-48
2021/05/27 10:55:58;;;;;;;1.90;1.60;;;;;;;;;;4989840;28;20562;-47
2021/05/27 10:58:43;;;;;;;2.07;1.97;;;;;;;;;;4987309;28;20902;-48
2021/05/27 11:01:08;;;;;;;2.13;1.90;;;;;;;;;;4984597;28;20557;-48
2021/05/27 11:03:46;;;;;;;2.03;1.93;;;;;;;;;;4990111;28;20615;-48
2021/05/27 11:06:17;;;;;;;1.90;1.80;;;;;;;;;;4989760;28;20259;-49
2021/05/27 11:08:42;;;;;;;1.93;1.83;;;;;;;;;;4989811;28;21225;-48
2021/05/27 11:11:40;;;;;;;2.30;1.98;;;;;;;;;;4984785;28;20612;-49
2021/05/27 11:14:26;;;;;;;1.87;1.77;;;;;;;;;;4976460;28;20220;-47
2021/05/27 11:20:28;;;;;;;1.93;1.83;;;;;;;;;;4989986;28;20652;-46
2021/05/27 11:25:07;;;;;;;1.83;1.73;;;;;;;;;;4985571;28;20591;-48
2021/05/27 11:27:32;;;;;;;2.43;2.23;;;;;;;;;;4968568;28;20672;-48
2021/05/27 11:30:17;;;;;;;2.07;1.70;;;;;;;;;;4970123;28;21107;-48
2021/05/27 11:32:42;;;;;;;2.30;2.10;;;;;;;;;;4987682;28;20170;-49
2021/05/27 11:35:07;;;;;;;2.00;1.90;;;;;;;;;;4989396;28;20581;-47
2021/05/27 11:37:34;;;;;;;2.10;2.00;;;;;;;;;;4989170;28;20189;-48
2021/05/27 11:39:59;;;;;;;2.20;2.00;;;;;;;;;;4987857;28;20185;-48
2021/05/27 11:42:24;;;;;;;2.27;2.10;;;;;;;;;;4989561;28;20588;-48
2021/05/27 11:45:00;;;;;;;2.03;1.83;;;;;;;;;;4983643;28;20194;-48
2021/05/27 11:47:25;;;;;;;2.10;2.00;;;;;;;;;;4977495;28;20629;-47
2021/05/27 11:50:06;;;;;;;2.47;2.13;;;;;;;;;;4989395;28;20578;-47
2021/05/27 11:52:31;;;;;;;1.77;1.67;;;;;;;;;;4989109;28;20181;-47
2021/05/27 11:54:57;;;;;;;2.60;2.27;;;;;;;;;;4987360;28;20933;-47
2021/05/27 11:57:38;;;;;;;2.67;2.57;;;;;;;;;;4986525;28;20252;-48
2021/05/27 12:00:04;;;;;;;4.30;3.37;;;;;;;;;;4987280;28;20189;-47
2021/05/27 12:02:42;;;;;;;3.43;3.00;;;;;;;;;;4985296;28;20976;-46
2021/05/27 12:05:23;;;;;;;3.70;3.33;;;;;;;;;;4988434;28;20761;-47
2021/05/27 12:08:06;;;;;;;9.60;4.00;;;;;;;;;;4989010;28;20648;-46
2021/05/27 12:10:31;;;;;;;4.20;3.33;;;;;;;;;;4970710;28;21468;-47
2021/05/27 12:12:57;;;;;;;12.47;5.10;;;;;;;;;;4988776;28;20680;-47
2021/05/27 12:15:23;;;;;;;6.23;3.73;;;;;;;;;;4984166;28;20236;-48
2021/05/27 12:17:49;;;;;;;8.70;4.70;;;;;;;;;;4978588;28;20181;-46
2021/05/27 12:20:20;;;;;;;5.13;3.93;;;;;;;;;;4988862;28;20616;-48
2021/05/27 12:22:46;;;;;;;5.83;2.83;;;;;;;;;;4987876;28;20606;-48
2021/05/27 12:25:12;;;;;;;3.20;3.00;;;;;;;;;;4988382;28;20593;-47
2021/05/27 12:27:38;;;;;;;3.30;3.00;;;;;;;;;;4986999;28;20713;-47
2021/05/27 12:30:04;;;;;;;3.73;3.47;;;;;;;;;;4982735;28;21218;-47
2021/05/27 12:32:29;;;;;;;3.40;3.17;;;;;;;;;;4984773;28;20597;-46
2021/05/27 12:34:54;;;;;;;3.60;3.40;;;;;;;;;;4987968;28;20220;-48
2021/05/27 12:37:19;;;;;;;3.70;3.50;;;;;;;;;;4988366;28;20186;-46
2021/05/27 12:39:44;;;;;;;4.17;3.77;;;;;;;;;;4985946;28;20175;-48
2021/05/27 12:42:10;;;;;;;4.20;3.90;;;;;;;;;;4986130;28;20261;-48
2021/05/27 12:44:44;;;;;;;4.70;4.33;;;;;;;;;;4986848;28;20225;-47
2021/05/27 12:47:12;;;;;;;5.40;4.87;;;;;;;;;;4974840;28;20215;-47
2021/05/27 12:49:37;;;;;;;5.23;4.73;;;;;;;;;;4988065;28;20649;-47
2021/05/27 12:52:02;;;;;;;4.80;4.40;;;;;;;;;;4987867;28;20599;-47
2021/05/27 12:54:28;;;;;;;5.23;4.47;;;;;;;;;;4986128;28;20178;-48
2021/05/27 12:57:00;;;;;;;4.50;4.20;;;;;;;;;;4987822;28;20198;-47
2021/05/27 12:59:25;;;;;;;3.30;3.10;;;;;;;;;;4987068;28;20211;-48
2021/05/27 13:01:56;;;;;;;2.70;2.50;;;;;;;;;;4982836;28;20646;-47
2021/05/27 13:04:21;;;;;;;2.20;2.00;;;;;;;;;;4968176;28;20179;-48
2021/05/27 13:06:47;;;;;;;4.67;1.20;;;;;;;;;;4975268;28;20597;-47
2021/05/27 13:09:14;;;;;;;1.25;1.10;;;;;;;;;;4986695;28;20178;-48
2021/05/27 13:12:05;;;;;;;0.90;0.90;;;;;;;;;;4985488;28;20647;-47
2021/05/27 13:14:31;;;;;;;1.30;1.00;;;;;;;;;;4982535;28;20639;-48
2021/05/27 13:16:57;;;;;;;0.80;0.80;;;;;;;;;;4979680;28;20606;-47
2021/05/27 13:19:25;;;;;;;0.70;0.70;;;;;;;;;;5007437;28;20607;-47
2021/05/27 13:21:51;;;;;;;0.60;0.60;;;;;;;;;;5002623;28;20666;-47
2021/05/27 13:24:19;;;;;;;0.90;0.90;;;;;;;;;;4993814;28;20609;-47
2021/05/27 13:26:47;;;;;;;2.00;1.10;;;;;;;;;;4984310;28;20709;-48
2021/05/27 13:29:12;;;;;;;0.97;0.97;;;;;;;;;;4986764;28;20704;-48
2021/05/27 13:31:39;;;;;;;1.10;1.00;;;;;;;;;;4981749;28;20657;-47
2021/05/27 13:34:04;;;;;;;0.70;0.70;;;;;;;;;;4992251;28;20282;-48
2021/05/27 13:36:30;;;;;;;0.93;0.83;;;;;;;;;;4987090;28;20620;-47
2021/05/27 13:38:55;;;;;;;0.80;0.80;;;;;;;;;;4985143;28;20273;-48
2021/05/27 13:41:20;;;;;;;0.90;0.80;;;;;;;;;;4987291;28;20187;-47
2021/05/27 13:43:45;;;;;;;0.80;0.80;;;;;;;;;;4984582;28;20598;-47
2021/05/27 13:46:11;;;;;;;0.70;0.70;;;;;;;;;;4980284;28;20175;-48
2021/05/27 13:48:36;;;;;;;0.87;0.87;;;;;;;;;;4979957;28;20293;-48
2021/05/27 13:51:02;;;;;;;0.90;0.90;;;;;;;;;;4986229;28;20250;-48
2021/05/27 13:53:27;;;;;;;0.97;0.97;;;;;;;;;;4987005;28;20194;-48
2021/05/27 13:55:57;;;;;;;0.70;0.70;;;;;;;;;;4985793;28;20652;-48
2021/05/27 13:58:23;;;;;;;1.23;0.70;;;;;;;;;;4985173;28;20185;-47
2021/05/27 14:00:49;;;;;;;0.70;0.70;;;;;;;;;;4976873;28;20779;-48
2021/05/27 14:03:14;;;;;;;0.87;0.70;;;;;;;;;;4978182;28;20612;-47
2021/05/27 14:05:39;;;;;;;0.70;0.70;;;;;;;;;;4974558;28;20534;-47
2021/05/27 14:08:05;;;;;;;0.70;0.70;;;;;;;;;;4983816;28;20717;-48
2021/05/27 14:10:30;;;;;;;0.80;0.80;;;;;;;;;;4984694;28;20274;-48
2021/05/27 14:12:55;;;;;;;0.70;0.70;;;;;;;;;;4983968;28;20218;-48
2021/05/27 14:15:21;;;;;;;0.70;0.70;;;;;;;;;;4981384;28;20921;-48
2021/05/27 14:17:46;;;;;;;0.70;0.70;;;;;;;;;;4984558;28;20195;-47
2021/05/27 14:20:11;;;;;;;0.75;0.75;;;;;;;;;;4986844;28;20199;-48
2021/05/27 14:22:37;;;;;;;0.70;0.70;;;;;;;;;;4990529;28;20188;-47
2021/05/27 14:25:03;;;;;;;1.00;1.00;;;;;;;;;;4988879;28;20187;-48
2021/05/27 14:27:28;;;;;;;1.33;0.80;;;;;;;;;;4989573;28;20293;-47
2021/05/27 14:29:53;;;;;;;0.83;0.83;;;;;;;;;;4986153;28;20671;-48
2021/05/27 14:32:18;;;;;;;1.10;1.00;;;;;;;;;;4983852;28;20178;-47
2021/05/27 14:34:44;;;;;;;0.83;0.83;;;;;;;;;;4990350;28;20175;-47
2021/05/27 14:37:09;;;;;;;1.23;0.90;;;;;;;;;;4990511;28;20523;-53
2021/05/27 14:39:34;;;;;;;0.80;0.80;;;;;;;;;;4988384;28;20185;-47
2021/05/27 14:41:59;;;;;;;0.77;0.77;;;;;;;;;;4988559;28;20243;-47
2021/05/27 14:44:24;;;;;;;0.90;0.90;;;;;;;;;;4988837;28;20178;-47
2021/05/27 14:46:49;;;;;;;0.90;0.80;;;;;;;;;;4985358;28;20191;-47
2021/05/27 14:49:15;;;;;;;1.55;0.80;;;;;;;;;;4989955;28;20649;-47
2021/05/27 14:51:40;;;;;;;1.03;1.00;;;;;;;;;;4989901;28;20181;-47
2021/05/27 14:54:05;;;;;;;1.00;1.00;;;;;;;;;;4990213;28;20246;-47
2021/05/27 14:56:31;;;;;;;1.33;1.10;;;;;;;;;;4988014;28;20175;-47
2021/05/27 14:58:56;;;;;;;0.97;0.97;;;;;;;;;;4988163;28;20191;-47